sensor_id;sensor_type;location;lat;lon;timestamp;P1;durP1;ratioP1;P2;durP2;ratioP2
33840;SDS011;20142;28.494;-16.312;2024-03-02T00:01:58;18.45;;;2.90;;
33840;SDS011;20142;28.494;-16.312;2024-03-02T00:06:59;15.52;;;3.20;;
33840;SDS011;20142;28.494;-16.312;2024-03-02T00:12:01;20.25;;;3.13;;
33840;SDS011;20142;28.494;-16.312;2024-03-02T00:17:04;20.63;;;3.03;;
33840;SDS011;20142;28.494;-16.312;2024-03-02T00:22:05;22.65;;;3.67;;
33840;SDS011;20142;28.494;-16.312;2024-03-02T00:27:08;30.25;;;3.75;;
33840;SDS011;20142;28.494;-16.312;2024-03-02T00:32:15;25.20;;;4.07;;
33840;SDS011;20142;28.494;-16.312;2024-03-02T00:37:18;25.90;;;3.97;;
33840;SDS011;20142;28.494;-16.312;2024-03-02T00:42:19;28.05;;;3.95;;
33840;SDS011;20142;28.494;-16.312;2024-03-02T00:47:21;36.63;;;3.55;;
33840;SDS011;20142;28.494;-16.312;2024-03-02T00:52:23;35.70;;;4.57;;
33840;SDS011;20142;28.494;-16.312;2024-03-02T00:57:25;23.88;;;3.17;;
33840;SDS011;20142;28.494;-16.312;2024-03-02T01:02:31;23.27;;;3.47;;
33840;SDS011;20142;28.494;-16.312;2024-03-02T01:07:33;22.40;;;3.28;;
33840;SDS011;20142;28.494;-16.312;2024-03-02T01:12:34;25.90;;;3.28;;
33840;SDS011;20142;28.494;-16.312;2024-03-02T01:17:36;28.65;;;3.70;;
33840;SDS011;20142;28.494;-16.312;2024-03-02T01:22:38;27.13;;;4.10;;
33840;SDS011;20142;28.494;-16.312;2024-03-02T01:27:40;24.70;;;3.55;;
33840;SDS011;20142;28.494;-16.312;2024-03-02T01:32:41;25.38;;;3.72;;
33840;SDS011;20142;28.494;-16.312;2024-03-02T01:37:43;30.30;;;3.90;;
33840;SDS011;20142;28.494;-16.312;2024-03-02T01:42:45;28.80;;;3.30;;
33840;SDS011;20142;28.494;-16.312;2024-03-02T01:47:47;30.00;;;4.70;;
33840;SDS011;20142;28.494;-16.312;2024-03-02T01:52:49;25.77;;;3.80;;
33840;SDS011;20142;28.494;-16.312;2024-03-02T01:57:50;19.77;;;3.00;;
33840;SDS011;20142;28.494;-16.312;2024-03-02T02:02:53;22.42;;;3.50;;
33840;SDS011;20142;28.494;-16.312;2024-03-02T02:07:55;21.23;;;3.05;;
33840;SDS011;20142;28.494;-16.312;2024-03-02T02:12:59;25.25;;;3.22;;
33840;SDS011;20142;28.494;-16.312;2024-03-02T02:18:01;24.27;;;3.22;;
33840;SDS011;20142;28.494;-16.312;2024-03-02T02:23:04;21.98;;;2.58;;
33840;SDS011;20142;28.494;-16.312;2024-03-02T02:28:08;16.85;;;2.47;;
33840;SDS011;20142;28.494;-16.312;2024-03-02T02:33:10;12.30;;;1.92;;
33840;SDS011;20142;28.494;-16.312;2024-03-02T02:38:12;13.20;;;2.13;;
33840;SDS011;20142;28.494;-16.312;2024-03-02T02:43:14;10.63;;;1.73;;
33840;SDS011;20142;28.494;-16.312;2024-03-02T02:48:16;14.25;;;1.73;;
33840;SDS011;20142;28.494;-16.312;2024-03-02T02:53:17;19.15;;;2.50;;
33840;SDS011;20142;28.494;-16.312;2024-03-02T02:58:19;16.48;;;2.35;;
33840;SDS011;20142;28.494;-16.312;2024-03-02T03:03:21;19.20;;;2.15;;
33840;SDS011;20142;28.494;-16.312;2024-03-02T03:08:23;16.33;;;2.53;;
33840;SDS011;20142;28.494;-16.312;2024-03-02T03:13:25;25.73;;;3.03;;
33840;SDS011;20142;28.494;-16.312;2024-03-02T03:18:26;20.15;;;2.40;;
33840;SDS011;20142;28.494;-16.312;2024-03-02T03:23:28;21.73;;;2.60;;
33840;SDS011;20142;28.494;-16.312;2024-03-02T03:28:30;21.88;;;2.97;;
33840;SDS011;20142;28.494;-16.312;2024-03-02T03:33:31;17.38;;;2.67;;
33840;SDS011;20142;28.494;-16.312;2024-03-02T03:38:33;24.65;;;2.97;;
33840;SDS011;20142;28.494;-16.312;2024-03-02T03:43:35;21.98;;;2.83;;
33840;SDS011;20142;28.494;-16.312;2024-03-02T03:48:37;16.90;;;2.60;;
33840;SDS011;20142;28.494;-16.312;2024-03-02T03:53:38;24.55;;;2.47;;
33840;SDS011;20142;28.494;-16.312;2024-03-02T03:58:40;23.40;;;2.75;;
33840;SDS011;20142;28.494;-16.312;2024-03-02T04:03:42;22.45;;;2.88;;
33840;SDS011;20142;28.494;-16.312;2024-03-02T04:08:43;17.90;;;2.72;;
33840;SDS011;20142;28.494;-16.312;2024-03-02T04:13:45;17.60;;;2.08;;
33840;SDS011;20142;28.494;-16.312;2024-03-02T04:18:47;18.45;;;2.25;;
33840;SDS011;20142;28.494;-16.312;2024-03-02T04:23:48;19.73;;;2.20;;
33840;SDS011;20142;28.494;-16.312;2024-03-02T04:28:51;11.70;;;1.75;;
33840;SDS011;20142;28.494;-16.312;2024-03-02T04:33:53;11.25;;;1.88;;
33840;SDS011;20142;28.494;-16.312;2024-03-02T04:38:55;17.67;;;2.28;;
33840;SDS011;20142;28.494;-16.312;2024-03-02T04:43:56;11.20;;;1.40;;
33840;SDS011;20142;28.494;-16.312;2024-03-02T04:48:58;11.88;;;2.00;;
33840;SDS011;20142;28.494;-16.312;2024-03-02T04:54:00;9.98;;;1.27;;
33840;SDS011;20142;28.494;-16.312;2024-03-02T04:59:01;16.38;;;1.88;;
33840;SDS011;20142;28.494;-16.312;2024-03-02T05:04:03;15.25;;;1.77;;
33840;SDS011;20142;28.494;-16.312;2024-03-02T05:09:05;20.50;;;2.60;;
33840;SDS011;20142;28.494;-16.312;2024-03-02T05:14:07;13.82;;;1.55;;
33840;SDS011;20142;28.494;-16.312;2024-03-02T05:19:09;11.43;;;1.83;;
33840;SDS011;20142;28.494;-16.312;2024-03-02T05:24:11;13.80;;;2.30;;
33840;SDS011;20142;28.494;-16.312;2024-03-02T05:29:12;19.48;;;2.10;;
33840;SDS011;20142;28.494;-16.312;2024-03-02T05:34:15;18.48;;;2.42;;
33840;SDS011;20142;28.494;-16.312;2024-03-02T05:39:17;17.13;;;2.17;;
33840;SDS011;20142;28.494;-16.312;2024-03-02T05:44:18;14.20;;;2.17;;
33840;SDS011;20142;28.494;-16.312;2024-03-02T05:49:20;8.80;;;1.73;;
33840;SDS011;20142;28.494;-16.312;2024-03-02T05:54:22;13.82;;;1.50;;
33840;SDS011;20142;28.494;-16.312;2024-03-02T05:59:24;18.55;;;1.60;;
33840;SDS011;20142;28.494;-16.312;2024-03-02T06:04:25;15.75;;;2.22;;
33840;SDS011;20142;28.494;-16.312;2024-03-02T06:09:27;14.27;;;1.95;;
33840;SDS011;20142;28.494;-16.312;2024-03-02T06:14:29;16.58;;;2.25;;
33840;SDS011;20142;28.494;-16.312;2024-03-02T06:19:30;10.50;;;1.63;;
33840;SDS011;20142;28.494;-16.312;2024-03-02T06:24:32;10.25;;;1.75;;
33840;SDS011;20142;28.494;-16.312;2024-03-02T06:29:33;9.30;;;1.25;;
33840;SDS011;20142;28.494;-16.312;2024-03-02T06:34:35;12.77;;;1.52;;
33840;SDS011;20142;28.494;-16.312;2024-03-02T06:39:37;13.95;;;1.67;;
33840;SDS011;20142;28.494;-16.312;2024-03-02T06:44:40;12.05;;;1.67;;
33840;SDS011;20142;28.494;-16.312;2024-03-02T06:49:41;9.75;;;1.50;;
33840;SDS011;20142;28.494;-16.312;2024-03-02T06:54:43;11.43;;;1.67;;
33840;SDS011;20142;28.494;-16.312;2024-03-02T06:59:45;12.00;;;1.67;;
33840;SDS011;20142;28.494;-16.312;2024-03-02T07:04:47;11.23;;;1.65;;
33840;SDS011;20142;28.494;-16.312;2024-03-02T07:09:48;15.27;;;2.03;;
33840;SDS011;20142;28.494;-16.312;2024-03-02T07:14:50;14.20;;;1.52;;
33840;SDS011;20142;28.494;-16.312;2024-03-02T07:20:14;12.40;;;1.75;;
33840;SDS011;20142;28.494;-16.312;2024-03-02T07:25:16;16.02;;;2.25;;
33840;SDS011;20142;28.494;-16.312;2024-03-02T07:30:18;12.73;;;1.98;;
33840;SDS011;20142;28.494;-16.312;2024-03-02T07:35:21;22.77;;;2.83;;
33840;SDS011;20142;28.494;-16.312;2024-03-02T07:40:27;25.02;;;2.63;;
33840;SDS011;20142;28.494;-16.312;2024-03-02T07:45:29;26.92;;;2.97;;
33840;SDS011;20142;28.494;-16.312;2024-03-02T07:50:30;21.10;;;2.28;;
33840;SDS011;20142;28.494;-16.312;2024-03-02T07:55:34;20.88;;;3.05;;
33840;SDS011;20142;28.494;-16.312;2024-03-02T08:00:38;17.90;;;3.33;;
33840;SDS011;20142;28.494;-16.312;2024-03-02T08:05:41;22.15;;;2.92;;
33840;SDS011;20142;28.494;-16.312;2024-03-02T08:10:43;17.42;;;2.90;;
33840;SDS011;20142;28.494;-16.312;2024-03-02T08:15:45;22.13;;;3.00;;
33840;SDS011;20142;28.494;-16.312;2024-03-02T08:20:47;24.90;;;3.70;;
33840;SDS011;20142;28.494;-16.312;2024-03-02T08:25:49;23.67;;;3.67;;
33840;SDS011;20142;28.494;-16.312;2024-03-02T08:30:51;20.58;;;3.20;;
33840;SDS011;20142;28.494;-16.312;2024-03-02T08:35:52;30.05;;;3.88;;
33840;SDS011;20142;28.494;-16.312;2024-03-02T08:40:54;21.88;;;3.70;;
33840;SDS011;20142;28.494;-16.312;2024-03-02T08:45:56;19.95;;;2.72;;
33840;SDS011;20142;28.494;-16.312;2024-03-02T08:50:57;20.27;;;2.67;;
33840;SDS011;20142;28.494;-16.312;2024-03-02T08:55:59;22.60;;;3.53;;
33840;SDS011;20142;28.494;-16.312;2024-03-02T09:01:01;14.10;;;2.40;;
33840;SDS011;20142;28.494;-16.312;2024-03-02T09:06:03;17.50;;;2.65;;
33840;SDS011;20142;28.494;-16.312;2024-03-02T09:11:05;18.35;;;3.53;;
33840;SDS011;20142;28.494;-16.312;2024-03-02T09:16:08;19.15;;;2.78;;
33840;SDS011;20142;28.494;-16.312;2024-03-02T09:21:11;12.43;;;1.88;;
33840;SDS011;20142;28.494;-16.312;2024-03-02T09:26:13;14.27;;;2.03;;
33840;SDS011;20142;28.494;-16.312;2024-03-02T09:31:15;12.98;;;2.25;;
33840;SDS011;20142;28.494;-16.312;2024-03-02T09:36:17;16.33;;;2.60;;
33840;SDS011;20142;28.494;-16.312;2024-03-02T09:41:20;12.48;;;2.10;;
33840;SDS011;20142;28.494;-16.312;2024-03-02T09:46:22;14.63;;;1.90;;
33840;SDS011;20142;28.494;-16.312;2024-03-02T09:51:24;12.50;;;2.05;;
33840;SDS011;20142;28.494;-16.312;2024-03-02T09:56:26;14.85;;;1.60;;
33840;SDS011;20142;28.494;-16.312;2024-03-02T10:01:27;16.25;;;2.20;;
33840;SDS011;20142;28.494;-16.312;2024-03-02T10:06:29;20.55;;;2.13;;
33840;SDS011;20142;28.494;-16.312;2024-03-02T10:11:31;10.70;;;1.83;;
33840;SDS011;20142;28.494;-16.312;2024-03-02T10:16:35;11.95;;;1.80;;
33840;SDS011;20142;28.494;-16.312;2024-03-02T10:21:41;12.50;;;2.13;;
33840;SDS011;20142;28.494;-16.312;2024-03-02T10:26:43;12.80;;;1.88;;
33840;SDS011;20142;28.494;-16.312;2024-03-02T10:31:46;13.70;;;2.13;;
33840;SDS011;20142;28.494;-16.312;2024-03-02T10:36:48;17.17;;;2.35;;
33840;SDS011;20142;28.494;-16.312;2024-03-02T10:41:51;13.70;;;2.13;;
33840;SDS011;20142;28.494;-16.312;2024-03-02T10:46:54;15.90;;;2.80;;
33840;SDS011;20142;28.494;-16.312;2024-03-02T10:51:58;17.00;;;2.15;;
33840;SDS011;20142;28.494;-16.312;2024-03-02T10:57:00;14.20;;;2.80;;
33840;SDS011;20142;28.494;-16.312;2024-03-02T11:02:03;15.48;;;2.28;;
33840;SDS011;20142;28.494;-16.312;2024-03-02T11:07:08;12.13;;;2.03;;
33840;SDS011;20142;28.494;-16.312;2024-03-02T11:17:38;15.73;;;2.35;;
33840;SDS011;20142;28.494;-16.312;2024-03-02T11:22:41;15.85;;;1.85;;
33840;SDS011;20142;28.494;-16.312;2024-03-02T11:32:54;7.53;;;1.55;;
33840;SDS011;20142;28.494;-16.312;2024-03-02T11:37:56;11.80;;;1.83;;
33840;SDS011;20142;28.494;-16.312;2024-03-02T11:43:01;15.18;;;1.95;;
33840;SDS011;20142;28.494;-16.312;2024-03-02T11:58:41;12.07;;;1.40;;
33840;SDS011;20142;28.494;-16.312;2024-03-02T12:03:44;10.35;;;1.05;;
33840;SDS011;20142;28.494;-16.312;2024-03-02T12:08:46;11.85;;;1.45;;
33840;SDS011;20142;28.494;-16.312;2024-03-02T12:13:55;12.45;;;1.40;;
33840;SDS011;20142;28.494;-16.312;2024-03-02T12:18:59;10.63;;;1.55;;
33840;SDS011;20142;28.494;-16.312;2024-03-02T12:24:01;10.90;;;1.42;;
33840;SDS011;20142;28.494;-16.312;2024-03-02T12:29:03;11.45;;;1.50;;
33840;SDS011;20142;28.494;-16.312;2024-03-02T12:34:05;10.32;;;1.20;;
33840;SDS011;20142;28.494;-16.312;2024-03-02T12:39:10;7.05;;;1.40;;
33840;SDS011;20142;28.494;-16.312;2024-03-02T12:44:11;15.25;;;1.63;;
33840;SDS011;20142;28.494;-16.312;2024-03-02T12:49:14;12.80;;;1.50;;
33840;SDS011;20142;28.494;-16.312;2024-03-02T12:54:22;12.80;;;2.00;;
33840;SDS011;20142;28.494;-16.312;2024-03-02T12:59:25;14.70;;;1.45;;
33840;SDS011;20142;28.494;-16.312;2024-03-02T13:04:27;10.60;;;2.25;;
33840;SDS011;20142;28.494;-16.312;2024-03-02T13:09:30;8.25;;;1.73;;
33840;SDS011;20142;28.494;-16.312;2024-03-02T13:14:35;13.43;;;1.80;;
33840;SDS011;20142;28.494;-16.312;2024-03-02T13:19:36;7.45;;;1.50;;
33840;SDS011;20142;28.494;-16.312;2024-03-02T13:24:38;11.25;;;1.75;;
33840;SDS011;20142;28.494;-16.312;2024-03-02T13:29:42;14.90;;;1.65;;
33840;SDS011;20142;28.494;-16.312;2024-03-02T13:34:45;12.75;;;1.50;;
33840;SDS011;20142;28.494;-16.312;2024-03-02T13:39:46;8.63;;;1.70;;
33840;SDS011;20142;28.494;-16.312;2024-03-02T13:44:48;11.23;;;1.80;;
33840;SDS011;20142;28.494;-16.312;2024-03-02T13:49:51;13.35;;;1.52;;
33840;SDS011;20142;28.494;-16.312;2024-03-02T13:54:53;14.25;;;2.35;;
33840;SDS011;20142;28.494;-16.312;2024-03-02T13:59:55;13.45;;;1.92;;
33840;SDS011;20142;28.494;-16.312;2024-03-02T14:04:56;10.20;;;1.63;;
33840;SDS011;20142;28.494;-16.312;2024-03-02T14:09:58;12.15;;;1.70;;
33840;SDS011;20142;28.494;-16.312;2024-03-02T14:15:00;12.60;;;2.35;;
33840;SDS011;20142;28.494;-16.312;2024-03-02T14:20:03;7.15;;;1.00;;
33840;SDS011;20142;28.494;-16.312;2024-03-02T14:25:05;8.63;;;1.60;;
33840;SDS011;20142;28.494;-16.312;2024-03-02T14:30:08;12.50;;;1.83;;
33840;SDS011;20142;28.494;-16.312;2024-03-02T14:35:10;12.65;;;2.03;;
33840;SDS011;20142;28.494;-16.312;2024-03-02T14:40:12;13.18;;;1.70;;
33840;SDS011;20142;28.494;-16.312;2024-03-02T14:45:14;13.90;;;2.30;;
33840;SDS011;20142;28.494;-16.312;2024-03-02T14:50:16;15.32;;;2.05;;
33840;SDS011;20142;28.494;-16.312;2024-03-02T14:55:18;8.20;;;1.90;;
33840;SDS011;20142;28.494;-16.312;2024-03-02T15:00:19;13.85;;;2.00;;
33840;SDS011;20142;28.494;-16.312;2024-03-02T15:05:21;7.82;;;1.65;;
33840;SDS011;20142;28.494;-16.312;2024-03-02T15:10:23;9.40;;;1.60;;
33840;SDS011;20142;28.494;-16.312;2024-03-02T15:15:25;8.77;;;1.73;;
33840;SDS011;20142;28.494;-16.312;2024-03-02T15:20:27;9.27;;;1.83;;
33840;SDS011;20142;28.494;-16.312;2024-03-02T15:25:29;8.57;;;1.60;;
33840;SDS011;20142;28.494;-16.312;2024-03-02T15:30:31;9.27;;;1.63;;
33840;SDS011;20142;28.494;-16.312;2024-03-02T15:35:33;7.80;;;1.42;;
33840;SDS011;20142;28.494;-16.312;2024-03-02T15:40:34;8.85;;;1.80;;
33840;SDS011;20142;28.494;-16.312;2024-03-02T15:45:36;11.93;;;1.85;;
33840;SDS011;20142;28.494;-16.312;2024-03-02T15:50:38;8.27;;;1.67;;
33840;SDS011;20142;28.494;-16.312;2024-03-02T15:55:40;7.75;;;1.52;;
33840;SDS011;20142;28.494;-16.312;2024-03-02T16:00:42;7.20;;;1.60;;
33840;SDS011;20142;28.494;-16.312;2024-03-02T16:05:43;6.43;;;1.60;;
33840;SDS011;20142;28.494;-16.312;2024-03-02T16:10:45;8.52;;;1.38;;
33840;SDS011;20142;28.494;-16.312;2024-03-02T16:15:47;9.50;;;1.48;;
33840;SDS011;20142;28.494;-16.312;2024-03-02T16:20:49;13.57;;;1.70;;
33840;SDS011;20142;28.494;-16.312;2024-03-02T16:25:51;10.55;;;1.70;;
33840;SDS011;20142;28.494;-16.312;2024-03-02T16:30:52;9.00;;;1.70;;
33840;SDS011;20142;28.494;-16.312;2024-03-02T16:35:54;10.32;;;1.83;;
33840;SDS011;20142;28.494;-16.312;2024-03-02T16:40:56;9.93;;;1.70;;
33840;SDS011;20142;28.494;-16.312;2024-03-02T16:45:58;9.77;;;1.70;;
33840;SDS011;20142;28.494;-16.312;2024-03-02T16:50:59;8.15;;;1.90;;
33840;SDS011;20142;28.494;-16.312;2024-03-02T16:56:01;10.23;;;1.77;;
33840;SDS011;20142;28.494;-16.312;2024-03-02T17:01:04;7.97;;;1.45;;
33840;SDS011;20142;28.494;-16.312;2024-03-02T17:06:06;11.98;;;1.98;;
33840;SDS011;20142;28.494;-16.312;2024-03-02T17:11:07;11.20;;;2.00;;
33840;SDS011;20142;28.494;-16.312;2024-03-02T17:16:12;7.38;;;1.35;;
33840;SDS011;20142;28.494;-16.312;2024-03-02T17:21:18;12.25;;;1.73;;
33840;SDS011;20142;28.494;-16.312;2024-03-02T17:26:20;15.32;;;1.90;;
33840;SDS011;20142;28.494;-16.312;2024-03-02T17:31:22;15.05;;;2.13;;
33840;SDS011;20142;28.494;-16.312;2024-03-02T17:36:23;11.20;;;1.45;;
33840;SDS011;20142;28.494;-16.312;2024-03-02T17:41:25;12.52;;;1.90;;
33840;SDS011;20142;28.494;-16.312;2024-03-02T17:46:27;16.35;;;2.15;;
33840;SDS011;20142;28.494;-16.312;2024-03-02T17:51:28;11.60;;;1.85;;
33840;SDS011;20142;28.494;-16.312;2024-03-02T17:56:30;13.60;;;1.50;;
33840;SDS011;20142;28.494;-16.312;2024-03-02T18:01:32;15.82;;;2.13;;
33840;SDS011;20142;28.494;-16.312;2024-03-02T18:06:35;17.95;;;2.00;;
33840;SDS011;20142;28.494;-16.312;2024-03-02T18:11:37;15.25;;;2.05;;
33840;SDS011;20142;28.494;-16.312;2024-03-02T18:16:40;14.30;;;1.90;;
33840;SDS011;20142;28.494;-16.312;2024-03-02T18:21:41;8.80;;;1.80;;
33840;SDS011;20142;28.494;-16.312;2024-03-02T18:26:43;13.95;;;1.80;;
33840;SDS011;20142;28.494;-16.312;2024-03-02T18:31:45;12.70;;;1.60;;
33840;SDS011;20142;28.494;-16.312;2024-03-02T18:36:46;14.07;;;2.13;;
33840;SDS011;20142;28.494;-16.312;2024-03-02T18:41:48;12.50;;;2.25;;
33840;SDS011;20142;28.494;-16.312;2024-03-02T18:46:50;13.52;;;1.85;;
33840;SDS011;20142;28.494;-16.312;2024-03-02T18:51:52;9.88;;;1.52;;
33840;SDS011;20142;28.494;-16.312;2024-03-02T18:56:54;8.80;;;2.15;;
33840;SDS011;20142;28.494;-16.312;2024-03-02T19:01:56;9.32;;;1.60;;
33840;SDS011;20142;28.494;-16.312;2024-03-02T19:06:57;7.40;;;1.88;;
33840;SDS011;20142;28.494;-16.312;2024-03-02T19:11:59;9.82;;;1.40;;
33840;SDS011;20142;28.494;-16.312;2024-03-02T19:17:01;15.32;;;1.90;;
33840;SDS011;20142;28.494;-16.312;2024-03-02T19:22:03;11.80;;;1.90;;
33840;SDS011;20142;28.494;-16.312;2024-03-02T19:27:05;18.48;;;1.80;;
33840;SDS011;20142;28.494;-16.312;2024-03-02T19:32:07;6.93;;;1.50;;
33840;SDS011;20142;28.494;-16.312;2024-03-02T19:37:09;10.02;;;1.50;;
33840;SDS011;20142;28.494;-16.312;2024-03-02T19:42:10;15.23;;;1.60;;
33840;SDS011;20142;28.494;-16.312;2024-03-02T19:47:12;8.45;;;1.35;;
33840;SDS011;20142;28.494;-16.312;2024-03-02T19:52:19;9.38;;;2.30;;
33840;SDS011;20142;28.494;-16.312;2024-03-02T19:57:20;16.63;;;2.00;;
33840;SDS011;20142;28.494;-16.312;2024-03-02T20:02:24;9.38;;;2.28;;
33840;SDS011;20142;28.494;-16.312;2024-03-02T20:07:29;9.65;;;1.58;;
33840;SDS011;20142;28.494;-16.312;2024-03-02T20:12:31;9.02;;;1.98;;
33840;SDS011;20142;28.494;-16.312;2024-03-02T20:17:35;12.63;;;2.03;;
33840;SDS011;20142;28.494;-16.312;2024-03-02T20:22:39;13.32;;;2.03;;
33840;SDS011;20142;28.494;-16.312;2024-03-02T20:27:41;12.88;;;2.10;;
33840;SDS011;20142;28.494;-16.312;2024-03-02T20:32:46;10.10;;;1.70;;
33840;SDS011;20142;28.494;-16.312;2024-03-02T20:37:50;12.35;;;1.70;;
33840;SDS011;20142;28.494;-16.312;2024-03-02T20:42:52;10.93;;;1.77;;
33840;SDS011;20142;28.494;-16.312;2024-03-02T20:47:55;10.82;;;1.95;;
33840;SDS011;20142;28.494;-16.312;2024-03-02T20:52:57;14.45;;;1.83;;
33840;SDS011;20142;28.494;-16.312;2024-03-02T20:58:01;14.77;;;1.80;;
33840;SDS011;20142;28.494;-16.312;2024-03-02T21:03:03;20.73;;;2.17;;
33840;SDS011;20142;28.494;-16.312;2024-03-02T21:08:06;14.77;;;3.70;;
33840;SDS011;20142;28.494;-16.312;2024-03-02T21:13:10;18.55;;;3.15;;
33840;SDS011;20142;28.494;-16.312;2024-03-02T21:18:12;15.52;;;3.58;;
33840;SDS011;20142;28.494;-16.312;2024-03-02T21:23:14;19.15;;;2.75;;
33840;SDS011;20142;28.494;-16.312;2024-03-02T21:28:16;17.65;;;3.20;;
33840;SDS011;20142;28.494;-16.312;2024-03-02T21:33:21;20.50;;;2.83;;
33840;SDS011;20142;28.494;-16.312;2024-03-02T21:38:23;17.08;;;3.15;;
33840;SDS011;20142;28.494;-16.312;2024-03-02T21:43:25;21.10;;;3.33;;
33840;SDS011;20142;28.494;-16.312;2024-03-02T21:48:28;19.27;;;3.20;;
33840;SDS011;20142;28.494;-16.312;2024-03-02T21:53:30;24.02;;;3.85;;
33840;SDS011;20142;28.494;-16.312;2024-03-02T21:58:32;23.85;;;3.42;;
33840;SDS011;20142;28.494;-16.312;2024-03-02T22:03:34;27.50;;;3.72;;
33840;SDS011;20142;28.494;-16.312;2024-03-02T22:08:36;23.70;;;4.00;;
33840;SDS011;20142;28.494;-16.312;2024-03-02T22:13:38;26.55;;;4.00;;
33840;SDS011;20142;28.494;-16.312;2024-03-02T22:18:39;26.17;;;3.67;;
33840;SDS011;20142;28.494;-16.312;2024-03-02T22:23:41;26.13;;;3.78;;
33840;SDS011;20142;28.494;-16.312;2024-03-02T22:28:43;20.65;;;3.72;;
33840;SDS011;20142;28.494;-16.312;2024-03-02T22:33:45;17.08;;;3.67;;
33840;SDS011;20142;28.494;-16.312;2024-03-02T22:38:46;22.50;;;3.50;;
33840;SDS011;20142;28.494;-16.312;2024-03-02T22:43:48;20.83;;;2.92;;
33840;SDS011;20142;28.494;-16.312;2024-03-02T22:48:50;18.02;;;3.17;;
33840;SDS011;20142;28.494;-16.312;2024-03-02T22:53:52;24.48;;;3.40;;
33840;SDS011;20142;28.494;-16.312;2024-03-02T22:58:54;30.27;;;3.70;;
33840;SDS011;20142;28.494;-16.312;2024-03-02T23:03:55;22.30;;;4.07;;
33840;SDS011;20142;28.494;-16.312;2024-03-02T23:08:57;19.58;;;3.10;;
33840;SDS011;20142;28.494;-16.312;2024-03-02T23:13:59;27.15;;;3.88;;
33840;SDS011;20142;28.494;-16.312;2024-03-02T23:19:00;19.60;;;3.17;;
33840;SDS011;20142;28.494;-16.312;2024-03-02T23:24:02;21.27;;;2.90;;
33840;SDS011;20142;28.494;-16.312;2024-03-02T23:29:04;27.77;;;4.15;;
33840;SDS011;20142;28.494;-16.312;2024-03-02T23:34:06;25.67;;;3.10;;
33840;SDS011;20142;28.494;-16.312;2024-03-02T23:39:07;27.77;;;3.75;;
33840;SDS011;20142;28.494;-16.312;2024-03-02T23:44:10;27.20;;;3.55;;
33840;SDS011;20142;28.494;-16.312;2024-03-02T23:49:14;26.35;;;3.42;;
33840;SDS011;20142;28.494;-16.312;2024-03-02T23:54:16;37.05;;;4.20;;
33840;SDS011;20142;28.494;-16.312;2024-03-02T23:59:17;27.38;;;3.92;;
